IGIAC EDDG-EDDG
Flight info
| Callsign | IGIAC |
|---|---|
| Flight time | N/A |
| Altitude | |
| Route | EDDG/25 |
| Aircraft | GLID |
Departure
| Time | 2026-04-07 20:09 |
|---|---|
| Airport | Münster Osnabrück Airport (EDDG) |
Arrival
| Time | N/A |
|---|---|
| Airport | Münster Osnabrück Airport (EDDG) |
| Time | Latitude | Longitude | Altitude | Speed | Heading |
|---|---|---|---|---|---|
| 2026-04-07 19:55 | 52.13601 | 7.67743 | 161 ft | 0 kts | 117° |
| 2026-04-07 19:59 | 52.13591 | 7.67845 | 159 ft | 16 kts | 82° |
| 2026-04-07 20:00 | 52.13634 | 7.68045 | 159 ft | 21 kts | 69° |
| 2026-04-07 20:00 | 52.13687 | 7.68287 | 158 ft | 24 kts | 71° |
| 2026-04-07 20:00 | 52.13749 | 7.68613 | 157 ft | 11 kts | 93° |
| 2026-04-07 20:01 | 52.13741 | 7.68637 | 156 ft | 3 kts | 163° |
| 2026-04-07 20:01 | 52.13730 | 7.68631 | 156 ft | 2 kts | 240° |
| 2026-04-07 20:01 | 52.13728 | 7.68621 | 156 ft | 0 kts | 252° |
| 2026-04-07 20:03 | 52.13728 | 7.68619 | 156 ft | 3 kts | 250° |
| 2026-04-07 20:03 | 52.13665 | 7.68303 | 157 ft | 59 kts | 253° |
| 2026-04-07 20:03 | 52.13480 | 7.67390 | 245 ft | 102 kts | 248° |
| 2026-04-07 20:04 | 52.13400 | 7.66317 | 335 ft | 93 kts | 298° |
| 2026-04-07 20:04 | 52.13934 | 7.66015 | 301 ft | 84 kts | 19° |
| 2026-04-07 20:04 | 52.14416 | 7.66585 | 347 ft | 98 kts | 47° |
| 2026-04-07 20:04 | 52.14705 | 7.67678 | 436 ft | 116 kts | 89° |
| 2026-04-07 20:05 | 52.14299 | 7.68646 | 395 ft | 109 kts | 171° |
| 2026-04-07 20:05 | 52.13632 | 7.68208 | 247 ft | 111 kts | 236° |
| 2026-04-07 20:05 | 52.13377 | 7.67025 | 182 ft | 106 kts | 252° |
| 2026-04-07 20:05 | 52.13330 | 7.65805 | 421 ft | 106 kts | 293° |
| 2026-04-07 20:06 | 52.13925 | 7.65145 | 362 ft | 117 kts | 1° |
| 2026-04-07 20:06 | 52.14722 | 7.65418 | 419 ft | 113 kts | 22° |
| 2026-04-07 20:06 | 52.15219 | 7.66251 | 496 ft | 102 kts | 74° |
| 2026-04-07 20:06 | 52.15209 | 7.67426 | 432 ft | 107 kts | 102° |
| 2026-04-07 20:07 | 52.15024 | 7.68174 | 425 ft | 109 kts | 122° |
| 2026-04-07 20:07 | 52.14476 | 7.68958 | 383 ft | 105 kts | 162° |
| 2026-04-07 20:07 | 52.13796 | 7.68742 | 238 ft | 106 kts | 225° |
| 2026-04-07 20:07 | 52.13497 | 7.67680 | 180 ft | 98 kts | 251° |
| 2026-04-07 20:08 | 52.13284 | 7.66571 | 373 ft | 106 kts | 260° |
| 2026-04-07 20:08 | 52.13568 | 7.65448 | 499 ft | 128 kts | 330° |
| 2026-04-07 20:08 | 52.14353 | 7.65211 | 674 ft | 108 kts | 359° |
| 2026-04-07 20:08 | 52.15145 | 7.65262 | 579 ft | 119 kts | 3° |
| 2026-04-07 20:09 | 52.15975 | 7.65474 | 726 ft | 123 kts | 22° |
| 2026-04-07 20:09 | 52.16592 | 7.66433 | 870 ft | 133 kts | 68° |
| 2026-04-07 20:09 | 52.16608 | 7.67923 | 941 ft | 133 kts | 103° |
| 2026-04-07 20:09 | 52.16193 | 7.69226 | 776 ft | 130 kts | 130° |
| 2026-04-07 20:10 | 52.15539 | 7.70192 | 626 ft | 125 kts | 147° |
| 2026-04-07 20:10 | 52.14709 | 7.70547 | 489 ft | 126 kts | 183° |
| 2026-04-07 20:10 | 52.13911 | 7.70034 | 300 ft | 126 kts | 223° |
| 2026-04-07 20:10 | 52.13527 | 7.68787 | 169 ft | 119 kts | 252° |
| 2026-04-07 20:11 | 52.13253 | 7.67522 | 265 ft | 126 kts | 249° |
| 2026-04-07 20:11 | 52.12750 | 7.66586 | 532 ft | 114 kts | 198° |
| 2026-04-07 20:11 | 52.12028 | 7.67025 | 515 ft | 116 kts | 127° |
| 2026-04-07 20:11 | 52.11714 | 7.68172 | 438 ft | 110 kts | 98° |
| 2026-04-07 20:12 | 52.11812 | 7.69341 | 400 ft | 102 kts | 70° |
| 2026-04-07 20:12 | 52.12144 | 7.70324 | 372 ft | 99 kts | 40° |
| 2026-04-07 20:12 | 52.12698 | 7.70960 | 370 ft | 95 kts | 19° |
| 2026-04-07 20:12 | 52.13322 | 7.71069 | 327 ft | 88 kts | 345° |
| 2026-04-07 20:13 | 52.13758 | 7.70459 | 267 ft | 82 kts | 297° |
| 2026-04-07 20:13 | 52.13833 | 7.69589 | 210 ft | 76 kts | 261° |
| 2026-04-07 20:13 | 52.13752 | 7.69057 | 172 ft | 71 kts | 250° |